sensor_id;sensor_type;location;lat;lon;timestamp;pressure;altitude;pressure_sealevel;temperature;humidity
64610;BME280;51019;46.090;6.350;2022-11-15T00:01:08;96507.84;;;8.08;100.00
64610;BME280;51019;46.090;6.350;2022-11-15T00:03:35;96502.38;;;8.31;100.00
64610;BME280;51019;46.090;6.350;2022-11-15T00:06:04;96493.50;;;8.02;100.00
64610;BME280;51019;46.090;6.350;2022-11-15T00:08:33;96502.63;;;8.08;100.00
64610;BME280;51019;46.090;6.350;2022-11-15T00:11:01;96488.75;;;8.07;100.00
64610;BME280;51019;46.090;6.350;2022-11-15T00:13:29;96494.47;;;8.22;100.00
64610;BME280;51019;46.090;6.350;2022-11-15T00:15:57;96499.81;;;8.20;100.00
64610;BME280;51019;46.090;6.350;2022-11-15T00:18:27;96493.31;;;8.15;100.00
64610;BME280;51019;46.090;6.350;2022-11-15T00:20:56;96500.72;;;8.10;100.00
64610;BME280;51019;46.090;6.350;2022-11-15T00:23:23;96495.66;;;8.18;100.00
64610;BME280;51019;46.090;6.350;2022-11-15T00:25:55;96494.25;;;8.14;100.00
64610;BME280;51019;46.090;6.350;2022-11-15T00:28:27;96443.03;;;7.92;100.00
64610;BME280;51019;46.090;6.350;2022-11-15T00:30:59;96480.53;;;8.12;100.00
64610;BME280;51019;46.090;6.350;2022-11-15T00:33:28;96474.47;;;7.90;100.00
64610;BME280;51019;46.090;6.350;2022-11-15T00:36:00;96437.63;;;7.63;100.00
64610;BME280;51019;46.090;6.350;2022-11-15T00:38:30;96492.50;;;7.93;100.00
64610;BME280;51019;46.090;6.350;2022-11-15T00:40:58;96462.63;;;8.07;100.00
64610;BME280;51019;46.090;6.350;2022-11-15T00:43:25;96479.31;;;8.16;100.00
64610;BME280;51019;46.090;6.350;2022-11-15T00:45:52;96422.81;;;7.63;100.00
64610;BME280;51019;46.090;6.350;2022-11-15T00:48:19;96487.34;;;8.03;100.00
64610;BME280;51019;46.090;6.350;2022-11-15T00:50:48;96433.50;;;7.81;100.00
64610;BME280;51019;46.090;6.350;2022-11-15T00:53:16;96482.31;;;7.90;100.00
64610;BME280;51019;46.090;6.350;2022-11-15T00:55:43;96477.66;;;7.94;100.00
64610;BME280;51019;46.090;6.350;2022-11-15T00:58:11;96480.16;;;7.95;100.00
64610;BME280;51019;46.090;6.350;2022-11-15T01:00:40;96477.28;;;7.98;100.00
64610;BME280;51019;46.090;6.350;2022-11-15T01:03:07;96479.63;;;8.01;100.00
64610;BME280;51019;46.090;6.350;2022-11-15T01:05:37;96470.84;;;8.02;100.00
64610;BME280;51019;46.090;6.350;2022-11-15T01:08:06;96454.19;;;7.94;100.00
64610;BME280;51019;46.090;6.350;2022-11-15T01:10:38;96467.59;;;8.10;100.00
64610;BME280;51019;46.090;6.350;2022-11-15T01:13:05;96465.63;;;8.23;100.00
64610;BME280;51019;46.090;6.350;2022-11-15T01:15:32;96454.94;;;8.06;100.00
64610;BME280;51019;46.090;6.350;2022-11-15T01:17:59;96445.63;;;8.13;100.00
64610;BME280;51019;46.090;6.350;2022-11-15T01:20:28;96451.75;;;8.02;100.00
64610;BME280;51019;46.090;6.350;2022-11-15T01:22:56;96431.50;;;7.94;100.00
64610;BME280;51019;46.090;6.350;2022-11-15T01:25:25;96441.19;;;8.03;100.00
64610;BME280;51019;46.090;6.350;2022-11-15T01:27:52;96449.97;;;8.02;100.00
64610;BME280;51019;46.090;6.350;2022-11-15T01:30:19;96421.56;;;7.79;100.00
64610;BME280;51019;46.090;6.350;2022-11-15T01:32:47;96404.72;;;7.92;100.00
64610;BME280;51019;46.090;6.350;2022-11-15T01:35:15;96425.88;;;8.20;100.00
64610;BME280;51019;46.090;6.350;2022-11-15T01:37:42;96436.16;;;8.12;100.00
64610;BME280;51019;46.090;6.350;2022-11-15T01:40:10;96430.53;;;8.16;100.00
64610;BME280;51019;46.090;6.350;2022-11-15T01:42:39;96354.59;;;7.89;100.00
64610;BME280;51019;46.090;6.350;2022-11-15T01:45:12;96416.38;;;8.40;100.00
64610;BME280;51019;46.090;6.350;2022-11-15T01:47:41;96409.56;;;8.27;100.00
64610;BME280;51019;46.090;6.350;2022-11-15T01:50:14;96414.03;;;8.36;100.00
64610;BME280;51019;46.090;6.350;2022-11-15T01:52:42;96394.84;;;8.26;100.00
64610;BME280;51019;46.090;6.350;2022-11-15T01:55:12;96417.66;;;8.24;100.00
64610;BME280;51019;46.090;6.350;2022-11-15T01:57:44;96407.16;;;8.15;100.00
64610;BME280;51019;46.090;6.350;2022-11-15T02:00:14;96393.16;;;8.16;100.00
64610;BME280;51019;46.090;6.350;2022-11-15T02:02:42;96287.66;;;7.48;100.00
64610;BME280;51019;46.090;6.350;2022-11-15T02:05:10;96400.84;;;8.17;100.00
64610;BME280;51019;46.090;6.350;2022-11-15T02:07:37;96371.25;;;7.97;100.00
64610;BME280;51019;46.090;6.350;2022-11-15T02:10:08;96389.84;;;8.14;100.00
64610;BME280;51019;46.090;6.350;2022-11-15T02:12:36;96378.28;;;8.07;100.00
64610;BME280;51019;46.090;6.350;2022-11-15T02:15:06;96384.53;;;7.94;100.00
64610;BME280;51019;46.090;6.350;2022-11-15T02:17:51;96372.63;;;8.01;100.00
64610;BME280;51019;46.090;6.350;2022-11-15T02:20:43;96371.44;;;7.85;100.00
64610;BME280;51019;46.090;6.350;2022-11-15T02:26:24;96370.50;;;7.86;100.00
64610;BME280;51019;46.090;6.350;2022-11-15T02:29:01;96360.81;;;7.97;100.00
64610;BME280;51019;46.090;6.350;2022-11-15T02:31:36;96363.28;;;7.99;100.00
64610;BME280;51019;46.090;6.350;2022-11-15T02:34:09;96363.00;;;8.02;100.00
64610;BME280;51019;46.090;6.350;2022-11-15T02:36:43;96355.34;;;8.00;100.00
64610;BME280;51019;46.090;6.350;2022-11-15T02:39:21;96352.19;;;8.07;100.00
64610;BME280;51019;46.090;6.350;2022-11-15T02:41:54;96356.28;;;7.99;100.00
64610;BME280;51019;46.090;6.350;2022-11-15T02:44:29;96322.13;;;7.82;100.00
64610;BME280;51019;46.090;6.350;2022-11-15T02:46:59;96347.72;;;7.88;100.00
64610;BME280;51019;46.090;6.350;2022-11-15T02:49:41;96314.44;;;7.80;100.00
64610;BME280;51019;46.090;6.350;2022-11-15T02:52:14;96333.66;;;7.79;100.00
64610;BME280;51019;46.090;6.350;2022-11-15T02:54:42;96333.28;;;7.84;100.00
64610;BME280;51019;46.090;6.350;2022-11-15T02:57:23;96316.91;;;7.82;100.00
64610;BME280;51019;46.090;6.350;2022-11-15T03:00:04;96310.91;;;7.91;100.00
64610;BME280;51019;46.090;6.350;2022-11-15T03:05:52;96309.13;;;7.91;100.00
64610;BME280;51019;46.090;6.350;2022-11-15T03:08:26;96304.06;;;7.90;100.00
64610;BME280;51019;46.090;6.350;2022-11-15T03:11:03;96305.16;;;7.97;100.00
64610;BME280;51019;46.090;6.350;2022-11-15T03:13:37;96284.03;;;8.00;100.00
64610;BME280;51019;46.090;6.350;2022-11-15T03:16:09;96295.47;;;8.18;100.00
64610;BME280;51019;46.090;6.350;2022-11-15T03:18:41;96293.84;;;8.17;100.00
64610;BME280;51019;46.090;6.350;2022-11-15T03:21:13;96296.47;;;8.27;100.00
64610;BME280;51019;46.090;6.350;2022-11-15T03:23:40;96285.81;;;8.40;100.00
64610;BME280;51019;46.090;6.350;2022-11-15T03:26:11;96276.88;;;8.32;100.00
64610;BME280;51019;46.090;6.350;2022-11-15T03:28:44;96288.28;;;8.31;100.00
64610;BME280;51019;46.090;6.350;2022-11-15T03:31:15;96293.22;;;8.34;100.00
64610;BME280;51019;46.090;6.350;2022-11-15T03:34:03;96293.59;;;8.30;100.00
64610;BME280;51019;46.090;6.350;2022-11-15T03:36:34;96279.56;;;8.31;100.00
64610;BME280;51019;46.090;6.350;2022-11-15T03:39:05;96303.13;;;8.41;100.00
64610;BME280;51019;46.090;6.350;2022-11-15T03:41:39;96291.91;;;8.19;100.00
64610;BME280;51019;46.090;6.350;2022-11-15T03:44:15;96286.16;;;8.25;100.00
64610;BME280;51019;46.090;6.350;2022-11-15T03:46:48;96303.38;;;8.37;100.00
64610;BME280;51019;46.090;6.350;2022-11-15T03:49:27;96291.44;;;8.05;100.00
64610;BME280;51019;46.090;6.350;2022-11-15T03:51:59;96289.00;;;8.13;100.00
64610;BME280;51019;46.090;6.350;2022-11-15T03:54:27;96306.84;;;8.08;100.00
64610;BME280;51019;46.090;6.350;2022-11-15T03:56:54;96281.78;;;7.86;100.00
64610;BME280;51019;46.090;6.350;2022-11-15T03:59:22;96290.84;;;7.91;100.00
64610;BME280;51019;46.090;6.350;2022-11-15T04:01:49;96279.56;;;7.81;100.00
64610;BME280;51019;46.090;6.350;2022-11-15T04:04:16;96282.16;;;7.81;100.00
64610;BME280;51019;46.090;6.350;2022-11-15T04:06:43;96287.16;;;7.94;100.00
64610;BME280;51019;46.090;6.350;2022-11-15T04:09:12;96260.66;;;7.89;100.00
64610;BME280;51019;46.090;6.350;2022-11-15T04:11:39;96246.31;;;7.74;100.00
64610;BME280;51019;46.090;6.350;2022-11-15T04:14:06;96179.53;;;7.52;100.00
64610;BME280;51019;46.090;6.350;2022-11-15T04:16:33;96262.13;;;8.22;100.00
64610;BME280;51019;46.090;6.350;2022-11-15T04:19:00;96265.81;;;8.29;100.00
64610;BME280;51019;46.090;6.350;2022-11-15T04:21:45;96221.94;;;8.03;100.00
64610;BME280;51019;46.090;6.350;2022-11-15T04:24:31;96266.00;;;8.37;100.00
64610;BME280;51019;46.090;6.350;2022-11-15T04:26:58;96237.91;;;8.20;100.00
64610;BME280;51019;46.090;6.350;2022-11-15T04:29:25;96263.59;;;8.24;100.00
64610;BME280;51019;46.090;6.350;2022-11-15T04:32:02;96177.91;;;7.70;100.00
64610;BME280;51019;46.090;6.350;2022-11-15T04:34:31;96262.66;;;8.25;100.00
64610;BME280;51019;46.090;6.350;2022-11-15T04:36:58;96275.91;;;8.33;100.00
64610;BME280;51019;46.090;6.350;2022-11-15T04:39:45;96273.84;;;8.47;100.00
64610;BME280;51019;46.090;6.350;2022-11-15T04:42:12;96239.84;;;8.18;100.00
64610;BME280;51019;46.090;6.350;2022-11-15T04:44:40;96259.63;;;8.11;100.00
64610;BME280;51019;46.090;6.350;2022-11-15T04:47:07;96145.25;;;7.26;100.00
64610;BME280;51019;46.090;6.350;2022-11-15T04:49:34;96270.47;;;8.16;100.00
64610;BME280;51019;46.090;6.350;2022-11-15T04:52:01;96257.13;;;7.99;100.00
64610;BME280;51019;46.090;6.350;2022-11-15T04:54:28;96257.78;;;8.01;100.00
64610;BME280;51019;46.090;6.350;2022-11-15T04:56:57;96236.00;;;7.72;100.00
64610;BME280;51019;46.090;6.350;2022-11-15T04:59:24;96262.59;;;7.96;100.00
64610;BME280;51019;46.090;6.350;2022-11-15T05:01:52;96261.28;;;8.12;100.00
64610;BME280;51019;46.090;6.350;2022-11-15T05:04:20;96257.09;;;7.90;100.00
64610;BME280;51019;46.090;6.350;2022-11-15T05:06:47;96254.41;;;8.11;100.00
64610;BME280;51019;46.090;6.350;2022-11-15T05:09:15;96254.28;;;8.12;100.00
64610;BME280;51019;46.090;6.350;2022-11-15T05:11:42;96205.38;;;7.64;100.00
64610;BME280;51019;46.090;6.350;2022-11-15T05:14:11;96244.09;;;7.69;100.00
64610;BME280;51019;46.090;6.350;2022-11-15T05:16:38;96244.53;;;7.74;100.00
64610;BME280;51019;46.090;6.350;2022-11-15T05:19:07;96238.63;;;7.82;100.00
64610;BME280;51019;46.090;6.350;2022-11-15T05:21:35;96236.00;;;7.72;100.00
64610;BME280;51019;46.090;6.350;2022-11-15T05:24:02;96250.31;;;7.78;100.00
64610;BME280;51019;46.090;6.350;2022-11-15T05:26:30;96235.75;;;7.75;100.00
64610;BME280;51019;46.090;6.350;2022-11-15T05:28:58;96228.19;;;7.72;100.00
64610;BME280;51019;46.090;6.350;2022-11-15T05:31:27;96228.72;;;7.66;100.00
64610;BME280;51019;46.090;6.350;2022-11-15T05:33:56;96180.22;;;7.23;100.00
64610;BME280;51019;46.090;6.350;2022-11-15T05:36:28;96228.72;;;7.66;100.00
64610;BME280;51019;46.090;6.350;2022-11-15T05:38:58;96233.25;;;7.64;100.00
64610;BME280;51019;46.090;6.350;2022-11-15T05:41:28;96225.41;;;7.64;100.00
64610;BME280;51019;46.090;6.350;2022-11-15T05:43:58;96232.31;;;7.75;100.00
64610;BME280;51019;46.090;6.350;2022-11-15T05:46:29;96231.88;;;7.70;100.00
64610;BME280;51019;46.090;6.350;2022-11-15T05:48:57;96111.31;;;7.07;100.00
64610;BME280;51019;46.090;6.350;2022-11-15T05:51:24;96224.78;;;7.81;100.00
64610;BME280;51019;46.090;6.350;2022-11-15T05:53:55;96226.69;;;7.79;100.00
64610;BME280;51019;46.090;6.350;2022-11-15T05:56:24;96215.47;;;7.88;100.00
64610;BME280;51019;46.090;6.350;2022-11-15T05:58:52;96217.50;;;7.85;100.00
64610;BME280;51019;46.090;6.350;2022-11-15T06:01:20;96218.44;;;7.74;100.00
64610;BME280;51019;46.090;6.350;2022-11-15T06:03:51;96219.25;;;7.65;100.00
64610;BME280;51019;46.090;6.350;2022-11-15T06:06:18;96214.28;;;7.62;100.00
64610;BME280;51019;46.090;6.350;2022-11-15T06:08:45;96216.06;;;7.61;100.00
64610;BME280;51019;46.090;6.350;2022-11-15T06:11:13;96219.50;;;7.62;100.00
64610;BME280;51019;46.090;6.350;2022-11-15T06:13:40;96219.50;;;7.62;100.00
64610;BME280;51019;46.090;6.350;2022-11-15T06:16:07;96222.22;;;7.60;100.00
64610;BME280;51019;46.090;6.350;2022-11-15T06:18:35;96224.88;;;7.70;100.00
64610;BME280;51019;46.090;6.350;2022-11-15T06:21:05;96223.16;;;7.50;100.00
64610;BME280;51019;46.090;6.350;2022-11-15T06:23:33;96236.06;;;7.51;100.00
64610;BME280;51019;46.090;6.350;2022-11-15T06:26:02;96237.22;;;7.68;100.00
64610;BME280;51019;46.090;6.350;2022-11-15T06:28:30;96240.16;;;7.84;100.00
64610;BME280;51019;46.090;6.350;2022-11-15T06:31:02;96236.13;;;7.71;100.00
64610;BME280;51019;46.090;6.350;2022-11-15T06:33:29;96233.66;;;7.69;100.00
64610;BME280;51019;46.090;6.350;2022-11-15T06:36:00;96236.81;;;7.63;100.00
64610;BME280;51019;46.090;6.350;2022-11-15T06:38:31;96203.06;;;7.71;100.00
64610;BME280;51019;46.090;6.350;2022-11-15T06:41:01;96233.97;;;7.76;100.00
64610;BME280;51019;46.090;6.350;2022-11-15T06:43:29;96226.84;;;7.78;100.00
64610;BME280;51019;46.090;6.350;2022-11-15T06:45:57;96220.25;;;7.83;100.00
64610;BME280;51019;46.090;6.350;2022-11-15T06:48:25;96214.88;;;7.75;100.00
64610;BME280;51019;46.090;6.350;2022-11-15T06:50:52;96219.66;;;7.70;100.00
64610;BME280;51019;46.090;6.350;2022-11-15T06:53:19;96190.78;;;7.52;100.00
64610;BME280;51019;46.090;6.350;2022-11-15T06:55:48;96216.94;;;7.81;100.00
64610;BME280;51019;46.090;6.350;2022-11-15T06:58:15;96215.81;;;7.64;100.00
64610;BME280;51019;46.090;6.350;2022-11-15T07:00:43;96219.78;;;7.69;100.00
64610;BME280;51019;46.090;6.350;2022-11-15T07:03:11;96212.88;;;7.58;100.00
64610;BME280;51019;46.090;6.350;2022-11-15T07:05:39;96213.47;;;7.71;100.00
64610;BME280;51019;46.090;6.350;2022-11-15T07:08:07;96199.53;;;7.91;100.00
64610;BME280;51019;46.090;6.350;2022-11-15T07:10:35;96176.88;;;8.01;100.00
64610;BME280;51019;46.090;6.350;2022-11-15T07:13:04;96181.44;;;8.09;100.00
64610;BME280;51019;46.090;6.350;2022-11-15T07:15:31;96164.66;;;8.02;100.00
64610;BME280;51019;46.090;6.350;2022-11-15T07:18:00;96183.94;;;8.30;100.00
64610;BME280;51019;46.090;6.350;2022-11-15T07:20:28;96183.56;;;8.34;100.00
64610;BME280;51019;46.090;6.350;2022-11-15T07:22:59;96188.72;;;8.25;100.00
64610;BME280;51019;46.090;6.350;2022-11-15T07:25:30;96182.97;;;8.21;100.00
64610;BME280;51019;46.090;6.350;2022-11-15T07:27:58;96189.97;;;8.11;100.00
64610;BME280;51019;46.090;6.350;2022-11-15T07:30:27;96157.66;;;8.02;100.00
64610;BME280;51019;46.090;6.350;2022-11-15T07:32:55;96188.47;;;8.28;100.00
64610;BME280;51019;46.090;6.350;2022-11-15T07:35:22;96168.13;;;8.12;100.00
64610;BME280;51019;46.090;6.350;2022-11-15T07:37:54;96184.09;;;8.38;100.00
64610;BME280;51019;46.090;6.350;2022-11-15T07:40:21;96186.88;;;8.46;100.00
64610;BME280;51019;46.090;6.350;2022-11-15T07:42:48;96182.03;;;8.32;100.00
64610;BME280;51019;46.090;6.350;2022-11-15T07:45:33;96174.34;;;8.40;100.00
64610;BME280;51019;46.090;6.350;2022-11-15T07:48:12;96174.59;;;8.47;100.00
64610;BME280;51019;46.090;6.350;2022-11-15T07:50:40;96173.09;;;8.44;100.00
64610;BME280;51019;46.090;6.350;2022-11-15T07:53:09;96147.97;;;8.43;100.00
64610;BME280;51019;46.090;6.350;2022-11-15T07:55:36;96172.25;;;8.63;100.00
64610;BME280;51019;46.090;6.350;2022-11-15T07:58:05;96175.69;;;8.63;100.00
64610;BME280;51019;46.090;6.350;2022-11-15T08:00:35;96177.06;;;8.58;100.00
64610;BME280;51019;46.090;6.350;2022-11-15T08:03:04;96182.97;;;8.60;100.00
64610;BME280;51019;46.090;6.350;2022-11-15T08:05:31;96172.81;;;8.47;100.00
64610;BME280;51019;46.090;6.350;2022-11-15T08:07:59;96160.44;;;8.49;100.00
64610;BME280;51019;46.090;6.350;2022-11-15T08:10:26;96178.72;;;8.49;100.00
64610;BME280;51019;46.090;6.350;2022-11-15T08:12:58;96180.25;;;8.52;100.00
64610;BME280;51019;46.090;6.350;2022-11-15T08:15:25;96159.63;;;8.39;100.00
64610;BME280;51019;46.090;6.350;2022-11-15T08:17:55;96175.72;;;8.54;100.00
64610;BME280;51019;46.090;6.350;2022-11-15T08:20:24;96191.94;;;8.57;100.00
64610;BME280;51019;46.090;6.350;2022-11-15T08:22:51;96170.06;;;8.58;100.00
64610;BME280;51019;46.090;6.350;2022-11-15T08:25:19;96154.53;;;8.47;100.00
64610;BME280;51019;46.090;6.350;2022-11-15T08:27:46;96169.78;;;8.61;100.00
64610;BME280;51019;46.090;6.350;2022-11-15T08:30:13;96180.22;;;8.71;100.00
64610;BME280;51019;46.090;6.350;2022-11-15T08:32:42;96177.75;;;8.79;100.00
64610;BME280;51019;46.090;6.350;2022-11-15T08:35:11;96174.97;;;8.81;100.00
64610;BME280;51019;46.090;6.350;2022-11-15T08:37:40;96183.25;;;8.76;100.00
64610;BME280;51019;46.090;6.350;2022-11-15T08:40:08;96176.88;;;8.98;100.00
64610;BME280;51019;46.090;6.350;2022-11-15T08:42:41;96172.06;;;8.93;100.00
64610;BME280;51019;46.090;6.350;2022-11-15T08:45:09;96175.13;;;8.89;100.00
64610;BME280;51019;46.090;6.350;2022-11-15T08:47:37;96169.97;;;9.06;100.00
64610;BME280;51019;46.090;6.350;2022-11-15T08:50:05;96168.69;;;9.20;100.00
64610;BME280;51019;46.090;6.350;2022-11-15T08:52:34;96156.50;;;9.11;100.00
64610;BME280;51019;46.090;6.350;2022-11-15T08:55:01;96136.81;;;9.07;100.00
64610;BME280;51019;46.090;6.350;2022-11-15T08:57:30;96157.56;;;9.18;100.00
64610;BME280;51019;46.090;6.350;2022-11-15T08:59:59;96156.03;;;9.25;100.00
64610;BME280;51019;46.090;6.350;2022-11-15T09:02:28;96133.88;;;9.20;100.00
64610;BME280;51019;46.090;6.350;2022-11-15T09:04:55;96157.09;;;9.32;100.00
64610;BME280;51019;46.090;6.350;2022-11-15T09:07:25;96134.94;;;9.27;100.00
64610;BME280;51019;46.090;6.350;2022-11-15T09:09:58;96150.03;;;9.42;100.00
64610;BME280;51019;46.090;6.350;2022-11-15T09:12:27;96151.53;;;9.45;100.00
64610;BME280;51019;46.090;6.350;2022-11-15T09:14:54;96138.97;;;9.48;100.00
64610;BME280;51019;46.090;6.350;2022-11-15T09:17:21;96136.22;;;9.50;100.00
64610;BME280;51019;46.090;6.350;2022-11-15T09:19:48;96147.31;;;9.62;100.00
64610;BME280;51019;46.090;6.350;2022-11-15T09:22:15;96139.19;;;9.65;100.00
64610;BME280;51019;46.090;6.350;2022-11-15T09:24:43;96144.41;;;9.65;100.00
64610;BME280;51019;46.090;6.350;2022-11-15T09:27:13;96140.41;;;9.70;100.00
64610;BME280;51019;46.090;6.350;2022-11-15T09:29:41;96146.84;;;9.76;100.00
64610;BME280;51019;46.090;6.350;2022-11-15T09:32:09;96132.91;;;9.75;100.00
64610;BME280;51019;46.090;6.350;2022-11-15T09:34:36;96110.34;;;9.74;100.00
64610;BME280;51019;46.090;6.350;2022-11-15T09:37:03;96111.03;;;9.76;100.00
64610;BME280;51019;46.090;6.350;2022-11-15T09:39:31;96135.81;;;10.00;100.00
64610;BME280;51019;46.090;6.350;2022-11-15T09:42:17;96127.81;;;10.19;100.00
64610;BME280;51019;46.090;6.350;2022-11-15T09:45:06;96114.50;;;10.12;100.00
64610;BME280;51019;46.090;6.350;2022-11-15T09:48:03;96116.53;;;10.18;100.00
64610;BME280;51019;46.090;6.350;2022-11-15T09:50:41;96133.66;;;10.31;100.00
64610;BME280;51019;46.090;6.350;2022-11-15T09:53:15;96139.78;;;10.39;100.00
64610;BME280;51019;46.090;6.350;2022-11-15T09:55:50;96136.00;;;10.34;100.00
64610;BME280;51019;46.090;6.350;2022-11-15T09:58:27;96132.25;;;10.36;100.00
64610;BME280;51019;46.090;6.350;2022-11-15T10:00:58;96117.13;;;10.30;100.00
64610;BME280;51019;46.090;6.350;2022-11-15T10:03:29;96134.09;;;10.44;100.00
64610;BME280;51019;46.090;6.350;2022-11-15T10:06:02;96125.94;;;10.47;100.00
64610;BME280;51019;46.090;6.350;2022-11-15T10:08:52;96127.59;;;10.48;100.00
64610;BME280;51019;46.090;6.350;2022-11-15T10:11:30;96123.69;;;10.52;100.00
64610;BME280;51019;46.090;6.350;2022-11-15T10:14:03;96124.22;;;10.55;100.00
64610;BME280;51019;46.090;6.350;2022-11-15T10:17:00;96119.78;;;10.56;100.00
64610;BME280;51019;46.090;6.350;2022-11-15T10:19:35;96090.78;;;10.32;100.00
64610;BME280;51019;46.090;6.350;2022-11-15T10:22:25;96093.06;;;10.27;100.00
64610;BME280;51019;46.090;6.350;2022-11-15T10:25:17;96069.16;;;10.30;100.00
64610;BME280;51019;46.090;6.350;2022-11-15T10:27:50;96096.56;;;10.35;100.00
64610;BME280;51019;46.090;6.350;2022-11-15T10:30:21;96098.78;;;10.74;100.00
64610;BME280;51019;46.090;6.350;2022-11-15T10:32:49;96104.03;;;10.74;100.00
64610;BME280;51019;46.090;6.350;2022-11-15T10:35:20;96098.47;;;10.77;100.00
64610;BME280;51019;46.090;6.350;2022-11-15T10:37:48;96094.44;;;10.82;100.00
64610;BME280;51019;46.090;6.350;2022-11-15T10:40:20;96044.22;;;10.69;100.00
64610;BME280;51019;46.090;6.350;2022-11-15T10:42:49;96084.41;;;11.04;100.00
64610;BME280;51019;46.090;6.350;2022-11-15T10:45:33;96032.00;;;10.86;100.00
64610;BME280;51019;46.090;6.350;2022-11-15T10:48:24;96067.06;;;10.85;100.00
64610;BME280;51019;46.090;6.350;2022-11-15T10:50:52;96051.56;;;10.91;100.00
64610;BME280;51019;46.090;6.350;2022-11-15T10:53:28;96066.59;;;11.15;100.00
64610;BME280;51019;46.090;6.350;2022-11-15T10:56:08;96047.00;;;11.02;100.00
64610;BME280;51019;46.090;6.350;2022-11-15T10:58:41;96056.91;;;11.16;100.00
64610;BME280;51019;46.090;6.350;2022-11-15T11:01:14;96054.28;;;11.16;100.00
64610;BME280;51019;46.090;6.350;2022-11-15T11:03:42;96044.25;;;11.11;100.00
64610;BME280;51019;46.090;6.350;2022-11-15T11:06:11;95968.16;;;10.61;100.00
64610;BME280;51019;46.090;6.350;2022-11-15T11:08:40;96006.31;;;10.89;100.00
64610;BME280;51019;46.090;6.350;2022-11-15T11:11:07;96032.50;;;11.15;100.00
64610;BME280;51019;46.090;6.350;2022-11-15T11:13:37;96028.66;;;11.02;100.00
64610;BME280;51019;46.090;6.350;2022-11-15T11:16:26;96001.88;;;10.82;100.00
64610;BME280;51019;46.090;6.350;2022-11-15T11:19:08;96035.97;;;11.24;100.00
64610;BME280;51019;46.090;6.350;2022-11-15T11:21:49;96001.63;;;11.09;100.00
64610;BME280;51019;46.090;6.350;2022-11-15T11:24:22;95981.53;;;10.84;100.00
64610;BME280;51019;46.090;6.350;2022-11-15T11:29:55;96013.38;;;11.39;100.00
64610;BME280;51019;46.090;6.350;2022-11-15T11:32:36;95990.41;;;11.33;100.00
64610;BME280;51019;46.090;6.350;2022-11-15T11:35:12;96012.59;;;11.47;100.00
64610;BME280;51019;46.090;6.350;2022-11-15T11:37:56;96004.16;;;11.27;100.00
64610;BME280;51019;46.090;6.350;2022-11-15T11:40:32;96001.50;;;11.19;100.00
64610;BME280;51019;46.090;6.350;2022-11-15T11:43:06;95991.38;;;11.40;100.00
64610;BME280;51019;46.090;6.350;2022-11-15T11:46:04;95979.91;;;11.41;100.00
64610;BME280;51019;46.090;6.350;2022-11-15T11:48:39;95988.03;;;11.72;100.00
64610;BME280;51019;46.090;6.350;2022-11-15T11:51:13;95973.78;;;11.83;100.00
64610;BME280;51019;46.090;6.350;2022-11-15T11:53:47;95975.09;;;11.95;100.00
64610;BME280;51019;46.090;6.350;2022-11-15T11:56:22;95971.81;;;11.85;100.00
64610;BME280;51019;46.090;6.350;2022-11-15T11:58:50;95954.41;;;11.76;100.00
64610;BME280;51019;46.090;6.350;2022-11-15T12:01:23;95949.13;;;11.68;100.00
64610;BME280;51019;46.090;6.350;2022-11-15T12:03:55;95966.75;;;11.83;100.00
64610;BME280;51019;46.090;6.350;2022-11-15T12:06:26;95965.41;;;11.87;100.00
64610;BME280;51019;46.090;6.350;2022-11-15T12:09:01;95958.84;;;11.83;100.00
64610;BME280;51019;46.090;6.350;2022-11-15T12:11:32;95944.09;;;11.82;100.00
64610;BME280;51019;46.090;6.350;2022-11-15T12:14:05;95954.91;;;11.87;100.00
64610;BME280;51019;46.090;6.350;2022-11-15T12:16:38;95950.09;;;11.75;100.00
64610;BME280;51019;46.090;6.350;2022-11-15T12:19:09;95946.38;;;11.77;100.00
64610;BME280;51019;46.090;6.350;2022-11-15T12:21:41;95928.81;;;11.61;100.00
64610;BME280;51019;46.090;6.350;2022-11-15T12:24:14;95938.31;;;11.71;100.00
64610;BME280;51019;46.090;6.350;2022-11-15T12:26:50;95927.81;;;11.71;100.00
64610;BME280;51019;46.090;6.350;2022-11-15T12:29:25;95936.47;;;11.63;100.00
64610;BME280;51019;46.090;6.350;2022-11-15T12:31:55;95911.41;;;11.69;100.00
64610;BME280;51019;46.090;6.350;2022-11-15T12:34:45;95923.03;;;11.66;100.00
64610;BME280;51019;46.090;6.350;2022-11-15T12:37:48;95924.19;;;11.63;100.00
64610;BME280;51019;46.090;6.350;2022-11-15T12:40:20;95915.66;;;11.53;100.00
64610;BME280;51019;46.090;6.350;2022-11-15T12:43:10;95901.56;;;11.38;100.00
64610;BME280;51019;46.090;6.350;2022-11-15T12:45:53;95847.06;;;11.08;100.00
64610;BME280;51019;46.090;6.350;2022-11-15T12:54:58;95887.63;;;11.38;100.00
64610;BME280;51019;46.090;6.350;2022-11-15T12:57:41;95883.81;;;11.40;100.00
64610;BME280;51019;46.090;6.350;2022-11-15T13:00:43;95877.63;;;11.49;100.00
64610;BME280;51019;46.090;6.350;2022-11-15T13:03:17;95864.81;;;11.54;100.00
64610;BME280;51019;46.090;6.350;2022-11-15T13:06:06;95853.34;;;11.39;100.00
64610;BME280;51019;46.090;6.350;2022-11-15T13:08:47;95867.75;;;11.43;100.00
64610;BME280;51019;46.090;6.350;2022-11-15T13:11:51;95867.75;;;11.51;100.00
64610;BME280;51019;46.090;6.350;2022-11-15T13:17:30;95858.09;;;11.44;100.00
64610;BME280;51019;46.090;6.350;2022-11-15T13:20:07;95847.78;;;11.50;100.00
64610;BME280;51019;46.090;6.350;2022-11-15T13:22:41;95839.72;;;11.52;100.00
64610;BME280;51019;46.090;6.350;2022-11-15T13:25:48;95855.44;;;11.68;100.00
64610;BME280;51019;46.090;6.350;2022-11-15T13:28:26;95838.56;;;11.54;100.00
64610;BME280;51019;46.090;6.350;2022-11-15T13:30:56;95856.78;;;11.56;100.00
64610;BME280;51019;46.090;6.350;2022-11-15T13:33:26;95846.13;;;11.57;100.00
64610;BME280;51019;46.090;6.350;2022-11-15T13:35:58;95828.75;;;11.48;100.00
64610;BME280;51019;46.090;6.350;2022-11-15T13:38:27;95834.81;;;11.49;100.00
64610;BME280;51019;46.090;6.350;2022-11-15T13:40:56;95826.59;;;11.52;100.00